METAR Data
IDs: Format: Raw Decoded Include TAF

Data at: 0748 UTC 03 Aug 2021

ZBTJ 030730Z 12004MPS 9999 BKN046 30/23 Q1005 NOSIG